Time;durP1;ratioP1;P1;durP2;ratioP2;P2;SDS_P1;SDS_P2;PMS_P1;PMS_P2;Temp;Humidity;BMP_temperature;BMP_pressure;BME280_temperature;BME280_humidity;BME280_pressure;Samples;Min_cycle;Max_cycle;Signal;HPM_P1;HPM_P2
2022/07/09 00:01:28;;;;;;;4.15;1.48;;;;;;;17.56;69.38;101407.31;5028811;28;20467;-57
2022/07/09 00:03:56;;;;;;;3.22;1.50;;;;;;;17.54;69.45;101406.50;5037695;28;20077;-58
2022/07/09 00:06:26;;;;;;;4.65;1.90;;;;;;;17.52;69.68;101407.44;5035971;28;20059;-58
2022/07/09 00:08:55;;;;;;;4.63;1.55;;;;;;;17.50;69.68;101404.00;5042311;28;20084;-58
2022/07/09 00:11:23;;;;;;;6.20;2.03;;;;;;;17.48;69.88;101406.66;5048667;28;20041;-58
2022/07/09 00:13:52;;;;;;;4.85;1.52;;;;;;;17.47;70.05;101409.34;5048084;28;20068;-58
2022/07/09 00:16:33;;;;;;;4.22;1.60;;;;;;;17.46;70.12;101405.84;5042920;28;20127;-58
2022/07/09 00:19:03;;;;;;;3.40;1.73;;;;;;;17.43;70.01;101400.69;5040052;28;20053;-57
2022/07/09 00:21:31;;;;;;;4.15;1.38;;;;;;;17.44;70.00;101399.78;5029777;28;20053;-57
2022/07/09 00:24:01;;;;;;;3.63;1.50;;;;;;;17.44;70.14;101397.16;5045354;28;20057;-58
2022/07/09 00:26:37;;;;;;;5.82;1.63;;;;;;;17.42;70.18;101388.50;5052514;28;20057;-58
2022/07/09 00:29:05;;;;;;;4.32;1.83;;;;;;;17.44;70.40;101393.69;5051439;28;20052;-57
2022/07/09 00:31:34;;;;;;;4.60;1.67;;;;;;;17.43;70.40;101392.81;5046566;28;20059;-57
2022/07/09 00:34:04;;;;;;;4.43;1.55;;;;;;;17.42;70.36;101395.50;5050683;28;20060;-57
2022/07/09 00:36:35;;;;;;;5.22;1.77;;;;;;;17.40;70.63;101390.28;5032080;28;20147;-57
2022/07/09 00:39:03;;;;;;;4.18;2.08;;;;;;;17.38;70.69;101391.22;5055433;28;20064;-57
2022/07/09 00:41:31;;;;;;;2.72;1.48;;;;;;;17.36;70.93;101383.41;5042973;28;20053;-58
2022/07/09 00:43:57;;;;;;;3.55;1.75;;;;;;;17.34;70.89;101393.94;5051918;28;20052;-55
2022/07/09 00:46:25;;;;;;;2.83;1.73;;;;;;;17.32;71.01;101384.38;5039056;28;20072;-57
2022/07/09 00:49:06;;;;;;;2.63;1.55;;;;;;;17.29;70.83;101382.72;5045205;28;20060;-57
2022/07/09 00:51:41;;;;;;;4.30;1.40;;;;;;;17.26;71.01;101388.03;5041720;28;20055;-55
2022/07/09 00:54:09;;;;;;;4.88;2.00;;;;;;;17.23;70.91;101384.63;5056655;28;20137;-56
2022/07/09 00:56:38;;;;;;;4.15;2.00;;;;;;;17.20;71.09;101374.22;5033958;28;20053;-57
2022/07/09 00:59:09;;;;;;;4.18;2.35;;;;;;;17.17;71.00;101374.28;5044571;28;20049;-57
2022/07/09 01:01:43;;;;;;;7.05;1.92;;;;;;;17.15;71.19;101373.47;5031769;28;20064;-58
2022/07/09 01:04:23;;;;;;;2.53;1.50;;;;;;;17.14;70.82;101374.34;5041900;28;20053;-58
2022/07/09 01:06:51;;;;;;;4.45;2.05;;;;;;;17.12;71.06;101370.91;5051800;28;20075;-57
2022/07/09 01:09:19;;;;;;;5.10;2.03;;;;;;;17.10;71.00;101364.84;5052438;28;20064;-58
2022/07/09 01:11:47;;;;;;;4.68;1.67;;;;;;;17.08;71.32;101371.91;5037152;28;20050;-58
2022/07/09 01:14:14;;;;;;;5.35;1.98;;;;;;;17.06;71.17;101371.06;5031890;28;20053;-57
2022/07/09 01:16:44;;;;;;;3.55;2.10;;;;;;;17.02;71.06;101358.06;5031749;28;20140;-57
2022/07/09 01:19:14;;;;;;;4.22;1.42;;;;;;;17.00;70.97;101357.22;5031526;28;20061;-58
2022/07/09 01:21:42;;;;;;;2.50;1.60;;;;;;;16.98;71.24;101353.78;5043463;28;20051;-58
2022/07/09 01:24:10;;;;;;;4.80;1.83;;;;;;;16.99;71.22;101357.28;5029917;28;20053;-57
2022/07/09 01:26:41;;;;;;;2.45;1.40;;;;;;;16.96;71.32;101347.75;5048040;28;20049;-55
2022/07/09 01:29:11;;;;;;;3.15;1.63;;;;;;;16.95;71.55;101343.41;5051709;28;20118;-56
2022/07/09 01:31:39;;;;;;;3.65;1.60;;;;;;;16.93;71.54;101350.44;5050693;28;20060;-56
2022/07/09 01:34:06;;;;;;;2.83;1.40;;;;;;;16.92;71.56;101340.84;5041252;28;20512;-56
2022/07/09 01:36:34;;;;;;;2.10;1.27;;;;;;;16.92;71.83;101335.63;5036848;28;20057;-58
2022/07/09 01:39:09;;;;;;;3.00;1.17;;;;;;;16.93;71.87;101345.19;5062204;28;20052;-58
2022/07/09 01:41:38;;;;;;;4.32;1.50;;;;;;;16.94;72.18;101332.97;5066601;28;20089;-58
2022/07/09 01:44:08;;;;;;;3.20;1.40;;;;;;;16.98;72.36;101325.00;5046471;28;20057;-57
2022/07/09 01:46:37;;;;;;;3.33;1.30;;;;;;;17.04;72.72;101330.06;5031353;28;20140;-58
2022/07/09 01:49:06;;;;;;;3.60;1.15;;;;;;;17.08;72.88;101322.13;5031151;28;20457;-56
2022/07/09 01:51:36;;;;;;;4.68;1.50;;;;;;;17.13;72.78;101321.09;5040694;28;20048;-56
2022/07/09 01:54:07;;;;;;;3.47;1.38;;;;;;;17.19;72.97;101330.59;5063770;28;20049;-57
2022/07/09 01:59:18;;;;;;;9.38;2.80;;;;;;;17.25;72.89;101314.72;5050217;28;20052;-58
2022/07/09 02:01:45;;;;;;;9.38;2.47;;;;;;;17.29;72.75;101321.59;5050023;28;20099;-58
2022/07/09 02:04:13;;;;;;;7.32;2.63;;;;;;;17.30;72.85;101318.06;5043268;28;20065;-58
2022/07/09 02:06:40;;;;;;;4.97;1.63;;;;;;;17.31;72.80;101315.41;5050080;28;20057;-56
2022/07/09 02:09:09;;;;;;;4.10;1.40;;;;;;;17.32;73.04;101311.88;5049623;28;20063;-58
2022/07/09 02:11:35;;;;;;;1.85;1.10;;;;;;;17.33;73.12;101307.50;5050538;28;20080;-58
2022/07/09 02:14:04;;;;;;;2.20;1.02;;;;;;;17.33;73.16;101302.25;5050225;28;20057;-57
2022/07/09 02:16:30;;;;;;;1.48;1.10;;;;;;;17.31;73.22;101298.81;5050378;28;20107;-56
2022/07/09 02:18:59;;;;;;;3.42;1.08;;;;;;;17.30;73.10;101297.09;5049509;28;20060;-57
2022/07/09 02:21:29;;;;;;;4.97;1.40;;;;;;;17.28;73.23;101291.03;5050507;28;20128;-56
2022/07/09 02:23:58;;;;;;;3.17;1.10;;;;;;;17.26;73.42;101290.22;5050297;28;20057;-57
2022/07/09 02:26:41;;;;;;;2.78;1.00;;;;;;;17.25;73.20;101280.66;5035027;28;20271;-56
2022/07/09 02:29:17;;;;;;;2.90;1.10;;;;;;;17.23;73.66;101283.31;5029867;28;20545;-57
2022/07/09 02:31:47;;;;;;;2.65;1.00;;;;;;;17.23;73.69;101285.06;5029716;28;20049;-56
2022/07/09 02:34:16;;;;;;;2.25;1.10;;;;;;;17.23;73.77;101277.22;5029842;28;20050;-57
2022/07/09 02:36:44;;;;;;;1.77;0.95;;;;;;;17.25;73.83;101278.03;5029788;28;20497;-56
2022/07/09 02:39:20;;;;;;;2.33;0.95;;;;;;;17.24;73.89;101273.69;5061466;28;20580;-56
2022/07/09 02:41:56;;;;;;;2.45;1.02;;;;;;;17.25;73.82;101278.03;5052089;28;20045;-56
2022/07/09 02:44:24;;;;;;;3.20;1.55;;;;;;;17.25;73.80;101278.88;5048535;28;20472;-56
2022/07/09 02:46:51;;;;;;;2.95;1.55;;;;;;;17.24;73.82;101271.06;5049633;28;20064;-57
2022/07/09 02:49:17;;;;;;;4.88;1.00;;;;;;;17.24;73.90;101271.94;5048306;28;20053;-56
2022/07/09 02:51:45;;;;;;;2.03;1.00;;;;;;;17.25;73.86;101267.56;5055684;28;20485;-54
2022/07/09 02:54:13;;;;;;;2.65;1.20;;;;;;;17.26;73.67;101274.50;5053719;28;20145;-56
2022/07/09 02:56:39;;;;;;;3.25;1.20;;;;;;;17.25;73.81;101267.56;5029883;28;20352;-57
2022/07/09 02:59:21;;;;;;;2.33;1.42;;;;;;;17.26;73.59;101269.28;5029746;28;20709;-57
2022/07/09 03:01:49;;;;;;;1.40;0.90;;;;;;;17.25;73.71;101272.78;5029725;28;20471;-58
2022/07/09 03:04:23;;;;;;;3.17;1.10;;;;;;;17.24;73.80;101271.06;5039413;28;20053;-58
2022/07/09 03:06:51;;;;;;;2.10;1.20;;;;;;;17.22;74.00;101267.63;5029670;28;20076;-58
2022/07/09 03:09:17;;;;;;;3.33;1.10;;;;;;;17.20;73.93;101269.44;5025000;28;20049;-56
2022/07/09 03:11:45;;;;;;;2.13;1.05;;;;;;;17.21;73.80;101272.00;5029630;28;20041;-57
2022/07/09 03:14:19;;;;;;;3.13;1.00;;;;;;;17.24;73.91;101271.06;5029326;28;21067;-57
2022/07/09 03:16:58;;;;;;;1.80;1.02;;;;;;;17.26;74.04;101264.03;5029286;28;20442;-57
2022/07/09 03:22:11;;;;;;;2.10;1.05;;;;;;;17.29;74.06;101262.19;5029234;28;20669;-57
2022/07/09 03:24:40;;;;;;;1.98;1.00;;;;;;;17.36;73.98;101262.88;5029075;28;20382;-58
2022/07/09 03:27:07;;;;;;;1.92;1.10;;;;;;;17.40;73.86;101261.03;5029127;28;20147;-57
2022/07/09 03:29:41;;;;;;;1.50;0.90;;;;;;;17.43;74.04;101272.28;5041032;28;20049;-58
2022/07/09 03:32:09;;;;;;;2.97;0.98;;;;;;;17.45;73.81;101265.22;5029887;28;20494;-58
2022/07/09 03:34:37;;;;;;;2.50;1.00;;;;;;;17.49;74.12;101261.63;5031706;28;20157;-57
2022/07/09 03:37:05;;;;;;;1.67;0.85;;;;;;;17.52;73.68;101265.91;5036437;28;20081;-58
2022/07/09 03:39:33;;;;;;;4.57;1.20;;;;;;;17.56;73.85;101267.53;5054049;28;20110;-56
2022/07/09 03:42:06;;;;;;;2.75;0.95;;;;;;;17.58;73.80;101268.34;5043640;28;20049;-58
2022/07/09 03:44:35;;;;;;;3.58;1.23;;;;;;;17.61;73.65;101266.50;5044735;28;20489;-58
2022/07/09 03:47:07;;;;;;;1.52;0.90;;;;;;;17.67;73.72;101266.34;5035793;28;20053;-58
2022/07/09 03:49:34;;;;;;;4.05;1.08;;;;;;;17.71;73.60;101267.16;5042720;28;20128;-56
2022/07/09 03:52:03;;;;;;;2.05;0.93;;;;;;;17.74;73.49;101266.19;5046386;28;20048;-56
2022/07/09 03:54:31;;;;;;;1.55;0.95;;;;;;;17.76;73.52;101274.88;5041246;28;20382;-58
2022/07/09 03:57:00;;;;;;;2.03;1.00;;;;;;;17.79;73.41;101274.78;5040898;28;20059;-57
2022/07/09 03:59:30;;;;;;;3.25;0.85;;;;;;;17.83;73.40;101265.94;5037767;28;20103;-55
2022/07/09 04:01:59;;;;;;;2.08;0.85;;;;;;;17.89;73.21;101263.13;5042524;28;20128;-58
2022/07/09 04:04:39;;;;;;;5.13;2.33;;;;;;;17.94;73.05;101253.34;5042098;28;20413;-58
2022/07/09 04:07:07;;;;;;;3.33;1.20;;;;;;;18.00;72.99;101247.91;5031191;28;20069;-58
2022/07/09 04:09:36;;;;;;;4.53;1.20;;;;;;;18.05;72.88;101247.75;5042546;28;20486;-57
2022/07/09 04:12:06;;;;;;;2.08;1.13;;;;;;;18.08;72.82;101245.03;5031253;28;20490;-57
2022/07/09 04:14:36;;;;;;;2.67;0.90;;;;;;;18.18;72.63;101257.81;5031781;28;20045;-57
2022/07/09 04:17:05;;;;;;;2.25;0.95;;;;;;;18.32;72.52;101257.41;5037471;28;20102;-56
2022/07/09 04:19:43;;;;;;;3.42;1.13;;;;;;;18.46;72.13;101256.94;5042067;28;20557;-58
2022/07/09 04:22:12;;;;;;;2.40;1.00;;;;;;;18.55;71.87;101256.66;5031767;28;20073;-58
2022/07/09 04:24:40;;;;;;;2.33;0.95;;;;;;;18.64;71.49;101260.75;5042296;28;20099;-58
2022/07/09 04:27:10;;;;;;;3.78;0.93;;;;;;;18.68;71.31;101255.34;5041704;28;20045;-56
2022/07/09 04:29:38;;;;;;;3.20;1.00;;;;;;;18.73;71.14;101249.94;5040279;28;20378;-55
2022/07/09 04:32:06;;;;;;;2.10;1.00;;;;;;;18.80;70.88;101241.84;5041830;28;20064;-57
2022/07/09 04:34:35;;;;;;;1.60;0.80;;;;;;;18.97;70.58;101248.28;5039926;28;20057;-57
2022/07/09 04:37:07;;;;;;;4.78;0.70;;;;;;;19.08;70.11;101243.50;5040855;28;20051;-56
2022/07/09 04:39:37;;;;;;;3.65;1.02;;;;;;;19.18;70.10;101248.34;5040209;28;20373;-56
2022/07/09 04:42:06;;;;;;;2.60;1.40;;;;;;;19.30;69.39;101241.81;5034938;28;20132;-57
2022/07/09 04:44:34;;;;;;;1.77;0.80;;;;;;;19.41;69.08;101244.91;5040123;28;20067;-58
2022/07/09 04:47:05;;;;;;;1.75;0.90;;;;;;;19.59;68.66;101237.28;5040286;28;20045;-57
2022/07/09 04:49:35;;;;;;;4.00;1.10;;;;;;;19.77;68.20;101236.56;5040691;28;20068;-58
2022/07/09 04:52:09;;;;;;;1.80;1.02;;;;;;;19.95;67.55;101233.25;5044486;28;20382;-58
2022/07/09 04:54:35;;;;;;;2.03;1.10;;;;;;;20.09;67.21;101233.56;5039949;28;20140;-58
2022/07/09 04:57:06;;;;;;;3.22;1.02;;;;;;;20.23;66.81;101234.78;5041288;28;20102;-58
2022/07/09 04:59:36;;;;;;;5.60;1.23;;;;;;;20.39;66.34;101236.78;5041673;28;20504;-56
2022/07/09 05:02:09;;;;;;;1.98;1.13;;;;;;;20.57;65.70;101240.41;5040683;28;20045;-58
2022/07/09 05:04:39;;;;;;;2.15;1.05;;;;;;;20.75;65.16;101237.00;5042190;28;20045;-58
2022/07/09 05:07:17;;;;;;;2.53;1.05;;;;;;;20.93;64.75;101231.88;5041108;28;20048;-58
2022/07/09 05:09:45;;;;;;;4.15;0.90;;;;;;;21.14;64.15;101233.56;5043485;28;20067;-58
2022/07/09 05:12:15;;;;;;;7.78;1.67;;;;;;;21.29;63.74;101235.56;5044779;28;20344;-56
2022/07/09 05:14:45;;;;;;;3.90;0.90;;;;;;;21.41;63.04;101229.75;5043703;28;20052;-57
2022/07/09 05:17:15;;;;;;;2.65;1.40;;;;;;;21.55;62.73;101230.91;5043717;28;20076;-58
2022/07/09 05:19:44;;;;;;;4.95;1.30;;;;;;;21.58;62.62;101230.75;5043523;28;20045;-56
2022/07/09 05:22:15;;;;;;;4.00;0.90;;;;;;;21.68;62.28;101245.22;5044034;28;20103;-58
2022/07/09 05:24:51;;;;;;;8.07;1.52;;;;;;;21.78;61.88;101245.66;5043550;28;20103;-57
2022/07/09 05:27:18;;;;;;;7.30;1.20;;;;;;;21.89;61.42;101241.59;5042951;28;20509;-58
2022/07/09 05:29:49;;;;;;;2.88;1.00;;;;;;;21.97;61.02;101228.91;5043810;28;20058;-58
2022/07/09 05:32:19;;;;;;;7.32;1.38;;;;;;;22.15;60.56;101228.97;5042788;28;20041;-58
2022/07/09 05:34:56;;;;;;;5.15;1.27;;;;;;;22.35;59.79;101223.56;5043867;28;20060;-58
2022/07/09 05:37:27;;;;;;;4.68;1.17;;;;;;;22.55;58.92;101231.38;5036286;28;20345;-58
2022/07/09 05:40:05;;;;;;;6.35;1.30;;;;;;;22.63;58.42;101233.63;5045801;28;20132;-58
2022/07/09 05:42:35;;;;;;;2.22;1.00;;;;;;;22.63;58.33;101229.19;5039250;28;20049;-58
2022/07/09 05:45:04;;;;;;;3.15;1.17;;;;;;;22.63;58.19;101234.47;5043226;28;20073;-58
2022/07/09 05:47:32;;;;;;;4.85;1.30;;;;;;;22.58;57.95;101233.84;5043597;28;20045;-58
2022/07/09 05:50:00;;;;;;;3.72;1.23;;;;;;;22.50;57.86;101230.75;5041063;28;20053;-58
2022/07/09 05:52:31;;;;;;;4.47;1.42;;;;;;;22.39;57.73;101229.56;5048603;28;20055;-57
2022/07/09 05:55:05;;;;;;;7.88;1.67;;;;;;;22.33;57.76;101218.34;5044907;28;20110;-58
2022/07/09 05:57:33;;;;;;;4.10;1.45;;;;;;;22.33;57.76;101215.72;5044305;28;20053;-58
2022/07/09 06:00:03;;;;;;;4.45;1.52;;;;;;;22.40;57.52;101216.28;5042672;28;20057;-58
2022/07/09 06:02:32;;;;;;;5.28;1.30;;;;;;;22.52;57.15;101209.53;5045075;28;20087;-58
2022/07/09 06:05:02;;;;;;;5.03;1.45;;;;;;;22.63;56.55;101207.19;5045225;28;20403;-57
2022/07/09 06:07:32;;;;;;;6.80;1.50;;;;;;;22.75;56.17;101201.28;5043943;28;20049;-57
2022/07/09 06:10:00;;;;;;;6.72;1.60;;;;;;;22.91;55.98;101201.38;5044851;28;20124;-56
2022/07/09 06:12:28;;;;;;;10.52;1.85;;;;;;;23.08;55.11;101193.41;5043210;28;20038;-58
2022/07/09 06:14:58;;;;;;;5.65;1.50;;;;;;;23.26;54.49;101187.13;5042509;28;20075;-58
2022/07/09 06:17:28;;;;;;;4.65;1.80;;;;;;;23.40;54.03;101189.03;5033344;28;20042;-58
2022/07/09 06:19:57;;;;;;;5.78;1.58;;;;;;;23.51;53.41;101185.81;5033001;28;20187;-58
2022/07/09 06:22:29;;;;;;;7.20;1.27;;;;;;;23.56;53.02;101199.69;5038865;28;20056;-57
2022/07/09 06:25:00;;;;;;;6.55;1.30;;;;;;;23.53;53.02;101195.38;5043764;28;20488;-57
2022/07/09 06:27:27;;;;;;;4.55;1.50;;;;;;;23.46;52.85;101198.44;5042999;28;20129;-55
2022/07/09 06:29:54;;;;;;;4.40;1.55;;;;;;;23.33;52.67;101200.88;5042609;28;20053;-58
2022/07/09 06:32:22;;;;;;;7.18;1.70;;;;;;;23.24;52.63;101198.72;5043764;28;20473;-58
2022/07/09 06:37:33;;;;;;;3.38;1.63;;;;;;;23.15;52.89;101194.78;5034761;28;20068;-58
2022/07/09 06:40:03;;;;;;;4.72;1.48;;;;;;;23.16;52.84;101196.50;5041904;28;20065;-56
2022/07/09 06:42:32;;;;;;;5.35;1.90;;;;;;;23.08;52.71;101193.41;5039507;28;20056;-54
2022/07/09 06:44:59;;;;;;;11.80;1.60;;;;;;;23.01;52.84;101205.25;5043853;28;20044;-57
2022/07/09 06:47:26;;;;;;;6.35;1.75;;;;;;;22.90;52.95;101200.53;5042769;28;20065;-56
2022/07/09 06:49:54;;;;;;;4.28;1.67;;;;;;;22.84;52.91;101199.97;5042420;28;20063;-58
2022/07/09 06:52:24;;;;;;;7.53;2.10;;;;;;;22.76;53.13;101202.13;5045704;28;20057;-58
2022/07/09 06:54:50;;;;;;;4.30;1.25;;;;;;;22.69;53.12;101198.94;5042575;28;20801;-58
2022/07/09 06:57:25;;;;;;;5.03;1.48;;;;;;;22.66;52.75;101191.19;5041415;28;20045;-56
2022/07/09 06:59:54;;;;;;;4.55;1.33;;;;;;;22.59;52.85;101193.28;5042831;28;20057;-56
2022/07/09 07:02:29;;;;;;;5.78;2.10;;;;;;;22.57;52.73;101189.88;5043997;28;20110;-55
2022/07/09 07:04:59;;;;;;;8.40;1.60;;;;;;;22.59;52.98;101189.78;5046346;28;20061;-57
2022/07/09 07:07:27;;;;;;;4.90;1.73;;;;;;;22.68;52.84;101190.16;5033117;28;20053;-56
2022/07/09 07:09:57;;;;;;;6.07;1.90;;;;;;;22.86;52.74;101198.97;5032691;28;20059;-57
2022/07/09 07:12:25;;;;;;;3.90;1.67;;;;;;;23.10;52.55;101178.31;5038857;28;20073;-58
2022/07/09 07:14:52;;;;;;;6.35;1.60;;;;;;;23.34;52.13;101178.78;5042233;28;20046;-58
2022/07/09 07:17:20;;;;;;;5.85;1.58;;;;;;;23.59;51.50;101178.34;5043284;28;20140;-58
2022/07/09 07:19:47;;;;;;;5.80;1.60;;;;;;;23.82;50.72;101177.03;5042099;28;20080;-58
2022/07/09 07:22:16;;;;;;;4.85;2.00;;;;;;;23.89;50.14;101187.19;5041255;28;20068;-58
2022/07/09 07:24:45;;;;;;;6.93;1.73;;;;;;;23.90;49.66;101183.59;5041632;28;20041;-58
2022/07/09 07:27:13;;;;;;;5.15;1.73;;;;;;;23.80;49.11;101193.00;5042046;28;20062;-57
2022/07/09 07:29:55;;;;;;;2.20;1.08;;;;;;;23.67;49.03;101194.66;5043271;28;20076;-57
2022/07/09 07:32:23;;;;;;;7.95;1.23;;;;;;;23.60;49.45;101186.19;5040492;28;20068;-57
2022/07/09 07:34:53;;;;;;;6.65;1.67;;;;;;;23.51;49.45;101181.38;5041478;28;20473;-58
2022/07/09 07:37:24;;;;;;;6.85;1.50;;;;;;;23.40;49.66;101183.72;5043743;28;20106;-58
2022/07/09 07:39:54;;;;;;;9.45;1.92;;;;;;;23.30;49.65;101182.53;5041315;28;20136;-56
2022/07/09 07:42:22;;;;;;;3.35;1.40;;;;;;;23.23;50.00;101182.00;5042620;28;20486;-57
2022/07/09 07:44:52;;;;;;;5.35;1.40;;;;;;;23.23;49.86;101182.00;5042152;28;20038;-57
2022/07/09 07:47:20;;;;;;;4.75;1.33;;;;;;;23.22;49.87;101167.09;5040897;28;20355;-58
2022/07/09 07:49:49;;;;;;;4.68;1.73;;;;;;;23.21;49.64;101173.31;5041771;28;20394;-58
2022/07/09 07:52:16;;;;;;;3.95;1.45;;;;;;;23.18;49.27;101167.34;5045236;28;20045;-58
2022/07/09 07:54:46;;;;;;;5.93;1.55;;;;;;;23.18;49.44;101162.03;5040657;28;20056;-58
2022/07/09 07:57:12;;;;;;;4.13;1.38;;;;;;;23.17;49.45;101153.25;5042982;28;20064;-58
2022/07/09 07:59:41;;;;;;;4.13;1.52;;;;;;;23.21;49.31;101152.16;5040832;28;20059;-58
2022/07/09 08:02:09;;;;;;;3.70;1.38;;;;;;;23.26;49.08;101160.69;5041830;28;20122;-56
2022/07/09 08:04:39;;;;;;;4.10;1.23;;;;;;;23.32;49.05;101163.94;5041676;28;20044;-58
2022/07/09 08:07:09;;;;;;;4.57;1.88;;;;;;;23.37;48.92;101164.53;5031945;28;20061;-58
2022/07/09 08:09:37;;;;;;;4.57;1.63;;;;;;;23.45;48.82;101165.00;5031668;28;20064;-58
2022/07/09 08:12:04;;;;;;;13.73;2.10;;;;;;;23.44;48.45;101168.56;5031260;28;20482;-58
2022/07/09 08:14:31;;;;;;;5.75;1.45;;;;;;;23.42;48.45;101165.16;5031147;28;20650;-58
2022/07/09 08:17:00;;;;;;;4.45;1.10;;;;;;;23.56;48.42;101167.94;5031023;28;20057;-57
2022/07/09 08:19:41;;;;;;;3.85;1.30;;;;;;;23.72;47.90;101150.25;5037186;28;20053;-58
2022/07/09 08:22:08;;;;;;;13.63;1.70;;;;;;;23.76;47.35;101164.16;5032123;28;20057;-58
2022/07/09 08:24:35;;;;;;;3.97;1.13;;;;;;;23.77;46.98;101156.13;5042158;28;20066;-58
2022/07/09 08:27:05;;;;;;;2.65;1.00;;;;;;;23.73;46.75;101170.47;5040136;28;20067;-57
2022/07/09 08:29:32;;;;;;;8.55;1.40;;;;;;;23.65;46.57;101167.41;5042102;28;20092;-58
2022/07/09 08:32:00;;;;;;;7.65;1.27;;;;;;;23.56;46.75;101167.94;5040781;28;20048;-56
2022/07/09 08:34:31;;;;;;;7.10;1.20;;;;;;;23.48;46.69;101170.97;5041340;28;20060;-56
2022/07/09 08:36:59;;;;;;;12.35;2.45;;;;;;;23.36;46.88;101178.69;5042504;28;20044;-57
2022/07/09 08:39:30;;;;;;;10.77;1.92;;;;;;;23.24;47.00;101173.13;5041687;28;20050;-56
2022/07/09 08:41:59;;;;;;;6.38;1.45;;;;;;;23.20;47.02;101170.75;5040077;28;20627;-57
2022/07/09 08:44:35;;;;;;;4.60;1.58;;;;;;;23.21;47.24;101183.88;5045664;28;20191;-56
2022/07/09 08:47:04;;;;;;;5.88;1.10;;;;;;;23.19;47.27;101180.47;5035599;28;20049;-56
2022/07/09 08:49:40;;;;;;;4.70;1.17;;;;;;;23.17;47.09;101182.34;5035307;28;20064;-57
2022/07/09 08:52:11;;;;;;;2.35;0.95;;;;;;;23.09;47.13;101173.13;5048437;28;20057;-56
2022/07/09 08:54:42;;;;;;;4.35;1.30;;;;;;;23.03;47.19;101179.59;5044167;28;20056;-56
2022/07/09 08:57:11;;;;;;;4.05;1.30;;;;;;;23.01;47.46;101165.59;5045209;28;20199;-54
2022/07/09 08:59:40;;;;;;;10.93;1.50;;;;;;;23.00;47.29;101163.88;5046072;28;20083;-56
2022/07/09 09:02:19;;;;;;;9.48;1.92;;;;;;;23.02;47.13;101156.72;5044956;28;20119;-57
2022/07/09 09:04:55;;;;;;;6.22;1.58;;;;;;;23.06;46.94;101158.28;5046915;28;20077;-56
2022/07/09 09:07:22;;;;;;;3.55;1.20;;;;;;;23.15;47.11;101163.06;5042600;28;20488;-58
2022/07/09 09:09:51;;;;;;;8.85;1.70;;;;;;;23.30;46.97;101167.50;5044824;28;20056;-58
2022/07/09 09:12:29;;;;;;;3.78;1.10;;;;;;;23.47;46.51;101168.41;5043281;28;20045;-58
2022/07/09 09:14:58;;;;;;;2.22;1.10;;;;;;;23.60;46.32;101172.97;5045095;28;20057;-58
2022/07/09 09:17:26;;;;;;;5.07;1.30;;;;;;;23.65;45.83;101167.41;5044402;28;20050;-58
2022/07/09 09:19:58;;;;;;;5.70;1.50;;;;;;;23.68;45.65;101179.63;5042991;28;20059;-58
2022/07/09 09:22:26;;;;;;;5.05;1.20;;;;;;;23.68;45.75;101169.03;5044154;28;20059;-58
2022/07/09 09:24:56;;;;;;;10.68;1.30;;;;;;;23.69;45.73;101171.59;5043795;28;20055;-57
2022/07/09 09:27:33;;;;;;;3.47;1.27;;;;;;;23.65;45.48;101170.06;5043303;28;20049;-56
2022/07/09 09:30:03;;;;;;;14.73;2.10;;;;;;;23.58;45.74;101176.63;5043186;28;20045;-57
2022/07/09 09:32:33;;;;;;;4.25;1.25;;;;;;;23.55;45.90;101167.06;5043707;28;20053;-58
2022/07/09 09:35:07;;;;;;;5.32;1.10;;;;;;;23.51;46.11;101180.53;5044931;28;20386;-53
2022/07/09 09:37:34;;;;;;;6.55;1.35;;;;;;;23.44;46.33;101181.81;5045214;28;20080;-58
2022/07/09 09:40:11;;;;;;;5.63;1.20;;;;;;;23.40;46.39;101172.31;5042794;28;20046;-57
2022/07/09 09:42:42;;;;;;;2.20;0.93;;;;;;;23.38;46.34;101179.47;5040731;28;20049;-58
2022/07/09 09:45:19;;;;;;;3.45;0.90;;;;;;;23.34;46.71;101167.34;5044287;28;20080;-58
2022/07/09 09:47:57;;;;;;;3.85;1.13;;;;;;;23.35;46.56;101163.75;5043590;28;20060;-57
2022/07/09 09:50:30;;;;;;;3.03;0.95;;;;;;;23.36;46.68;101166.31;5033933;28;20056;-58
2022/07/09 09:52:59;;;;;;;17.27;2.10;;;;;;;23.46;46.89;101166.69;5041802;28;20077;-56
2022/07/09 09:55:30;;;;;;;2.90;1.15;;;;;;;23.57;47.02;101154.63;5035450;28;20494;-57
2022/07/09 09:57:59;;;;;;;4.10;0.90;;;;;;;23.70;46.37;101151.28;5043345;28;20076;-57
2022/07/09 10:00:32;;;;;;;2.97;1.15;;;;;;;23.84;46.34;101144.25;5043694;28;20110;-57
2022/07/09 10:03:10;;;;;;;2.00;0.88;;;;;;;23.97;46.21;101140.94;5044460;28;21488;-60
2022/07/09 10:05:53;;;;;;;4.97;1.10;;;;;;;24.07;45.60;101147.38;5045498;28;20073;-57
2022/07/09 10:08:22;;;;;;;2.80;0.95;;;;;;;24.04;45.82;101140.47;5034107;28;20053;-56
2022/07/09 10:10:59;;;;;;;2.22;1.02;;;;;;;24.07;45.81;101142.09;5040893;28;20059;-57
2022/07/09 10:13:30;;;;;;;2.92;1.23;;;;;;;24.08;45.74;101127.91;5054439;28;20421;-56
2022/07/09 10:16:00;;;;;;;3.40;1.10;;;;;;;24.11;46.17;101135.69;5054577;28;20504;-57
2022/07/09 10:18:30;;;;;;;5.75;1.20;;;;;;;24.23;45.93;101132.31;5054773;28;20063;-57
2022/07/09 10:21:07;;;;;;;3.70;1.27;;;;;;;24.38;45.84;101136.72;5055076;28;20056;-57
2022/07/09 10:26:17;;;;;;;3.95;1.27;;;;;;;24.74;45.27;101122.22;5054851;28;20052;-57
2022/07/09 10:28:47;;;;;;;1.70;0.88;;;;;;;24.89;44.83;101121.25;5054100;28;20402;-56
2022/07/09 10:31:23;;;;;;;21.83;1.98;;;;;;;24.90;44.46;101122.97;5054507;28;20409;-59
2022/07/09 10:34:08;;;;;;;9.63;0.95;;;;;;;24.86;44.13;101129.41;5053109;28;20049;-59
2022/07/09 10:36:40;;;;;;;3.60;0.80;;;;;;;24.81;44.33;101128.84;5054479;28;20088;-57
2022/07/09 10:39:15;;;;;;;4.30;1.05;;;;;;;24.83;44.49;101122.50;5069940;28;20139;-58
2022/07/09 10:41:46;;;;;;;4.28;1.23;;;;;;;24.84;44.36;101118.03;5067857;28;20115;-56
2022/07/09 10:44:27;;;;;;;7.82;1.10;;;;;;;24.86;44.21;101118.78;5033923;28;20608;-59
2022/07/09 10:46:58;;;;;;;4.97;1.70;;;;;;;24.86;44.32;101124.09;5033985;28;20053;-57
2022/07/09 10:49:28;;;;;;;47.58;4.30;;;;;;;24.81;44.23;101118.22;5034003;28;20561;-58
2022/07/09 10:51:58;;;;;;;7.18;0.90;;;;;;;24.77;44.39;101098.16;5040991;28;20249;-59
2022/07/09 10:54:26;;;;;;;2.50;0.70;;;;;;;24.82;44.28;101093.41;5072875;28;20457;-57
2022/07/09 10:56:54;;;;;;;5.35;0.88;;;;;;;24.80;44.31;101105.91;5042725;28;20060;-57
2022/07/09 10:59:29;;;;;;;1.85;0.70;;;;;;;24.83;44.34;101111.03;5033745;28;20069;-56
2022/07/09 11:04:38;;;;;;;4.68;0.80;;;;;;;24.83;44.49;101121.63;5047412;28;20056;-57
2022/07/09 11:07:22;;;;;;;2.20;1.00;;;;;;;24.83;43.79;101116.34;5049652;28;20572;-57
2022/07/09 11:09:51;;;;;;;3.97;1.63;;;;;;;24.83;44.35;101113.69;5034106;28;20133;-57
2022/07/09 11:12:22;;;;;;;2.33;1.15;;;;;;;24.86;44.07;101110.84;5033251;28;20067;-57
2022/07/09 11:15:00;;;;;;;2.55;0.82;;;;;;;24.91;44.11;101084.88;5033669;28;20045;-57
2022/07/09 11:17:28;;;;;;;2.92;0.88;;;;;;;25.01;43.83;101094.03;5033631;28;20132;-57
2022/07/09 11:20:05;;;;;;;6.70;1.13;;;;;;;25.14;43.91;101105.56;5033627;28;20638;-59
2022/07/09 11:22:38;;;;;;;1.75;0.60;;;;;;;25.20;44.08;101092.88;5033832;28;20068;-59
2022/07/09 11:25:05;;;;;;;2.83;1.23;;;;;;;25.25;43.56;101088.97;5033580;28;20139;-59
2022/07/09 11:27:33;;;;;;;9.15;2.10;;;;;;;25.26;43.54;101108.38;5033364;28;20084;-59
2022/07/09 11:30:04;;;;;;;16.33;1.55;;;;;;;25.15;43.72;101106.41;5033630;28;20055;-59
2022/07/09 11:32:31;;;;;;;2.75;0.60;;;;;;;25.04;44.13;101106.25;5033372;28;20147;-58
2022/07/09 11:35:01;;;;;;;3.15;0.80;;;;;;;24.96;44.20;101096.06;5033153;28;20049;-58
2022/07/09 11:37:33;;;;;;;2.80;0.70;;;;;;;24.89;44.43;101100.03;5037889;28;20148;-59
2022/07/09 11:40:07;;;;;;;6.50;1.02;;;;;;;24.83;44.56;101095.13;5073271;28;20146;-59
2022/07/09 11:42:52;;;;;;;89.65;5.95;;;;;;;24.68;44.58;101104.03;5052739;28;20045;-59
2022/07/09 11:45:29;;;;;;;3.75;0.88;;;;;;;24.46;45.12;101108.00;5033364;28;20049;-58
2022/07/09 11:48:09;;;;;;;4.03;0.65;;;;;;;24.35;45.44;101105.13;5033472;28;20087;-57
2022/07/09 11:50:46;;;;;;;2.75;0.73;;;;;;;24.22;45.60;101102.31;5033411;28;20060;-59
2022/07/09 11:53:25;;;;;;;5.03;0.60;;;;;;;24.06;45.73;101096.22;5062051;28;20105;-59